createdAt,value
2019-02-14T00:02:49.426Z,78.11
2019-02-14T00:06:54.571Z,78.46
2019-02-14T00:10:59.725Z,78.72
2019-02-14T00:15:05.229Z,78.47
2019-02-14T00:19:10.399Z,78.52
2019-02-14T00:23:15.478Z,78.70
2019-02-14T00:27:20.671Z,78.58
2019-02-14T00:31:25.778Z,78.75
2019-02-14T00:35:30.847Z,79.01
2019-02-14T00:39:35.857Z,79.13
2019-02-14T00:43:41.297Z,78.63
2019-02-14T00:47:46.363Z,78.59
2019-02-14T00:51:51.633Z,78.58
2019-02-14T00:55:56.840Z,78.58
2019-02-14T01:00:02.139Z,78.54
2019-02-14T01:04:07.258Z,78.86
2019-02-14T01:08:12.442Z,78.95
2019-02-14T01:12:17.559Z,79.18
2019-02-14T01:16:22.729Z,79.65
2019-02-14T01:20:27.786Z,79.96
2019-02-14T01:24:32.915Z,80.12
2019-02-14T01:28:37.970Z,80.38
2019-02-14T01:32:43.132Z,80.52
2019-02-14T01:36:48.244Z,80.66
2019-02-14T01:40:53.435Z,80.47
2019-02-14T01:44:58.523Z,79.82
2019-02-14T01:49:03.506Z,79.97
2019-02-14T01:53:08.597Z,79.89
2019-02-14T01:57:13.698Z,79.79
2019-02-14T02:01:18.777Z,79.64
2019-02-14T02:05:24.322Z,79.59
2019-02-14T02:09:32.192Z,79.75
2019-02-14T02:13:37.379Z,79.77
2019-02-14T02:17:43.463Z,79.77
2019-02-14T02:21:49.371Z,79.54
2019-02-14T02:25:54.810Z,79.74
2019-02-14T02:29:59.904Z,79.73
2019-02-14T02:34:05.104Z,79.25
2019-02-14T02:38:10.217Z,79.54
2019-02-14T02:42:15.640Z,79.98
2019-02-14T02:46:20.736Z,80.37
2019-02-14T02:50:25.911Z,80.35
2019-02-14T02:54:31.126Z,80.16
2019-02-14T02:58:36.265Z,80.15
2019-02-14T03:02:41.531Z,80.17
2019-02-14T03:06:46.632Z,80.38
2019-02-14T03:10:51.751Z,80.40
2019-02-14T03:14:56.930Z,80.22
2019-02-14T03:19:02.206Z,79.92
2019-02-14T03:23:07.400Z,79.53
2019-02-14T03:27:12.545Z,79.66
2019-02-14T03:31:17.692Z,80.15
2019-02-14T03:35:22.837Z,80.51
2019-02-14T03:39:27.932Z,80.23
2019-02-14T03:43:33.032Z,80.00
2019-02-14T03:47:38.165Z,79.81
2019-02-14T03:51:43.322Z,79.16
2019-02-14T03:55:48.493Z,79.14
2019-02-14T03:59:53.605Z,79.46
2019-02-14T04:03:58.809Z,79.68
2019-02-14T04:08:03.887Z,80.10
2019-02-14T04:12:09.086Z,80.31
2019-02-14T04:16:14.181Z,79.41
2019-02-14T04:20:19.401Z,79.49
2019-02-14T04:24:24.624Z,79.40
2019-02-14T04:28:29.761Z,79.45
2019-02-14T04:32:34.893Z,79.67
2019-02-14T04:36:40.179Z,80.01
2019-02-14T04:40:45.303Z,80.11
2019-02-14T04:44:50.610Z,79.85
2019-02-14T04:48:55.708Z,79.91
2019-02-14T04:53:00.720Z,79.72
2019-02-14T04:57:05.799Z,78.99
2019-02-14T05:01:10.969Z,79.33
2019-02-14T05:05:16.095Z,79.55
2019-02-14T05:09:21.289Z,79.11
2019-02-14T05:13:26.493Z,79.04
2019-02-14T05:17:31.644Z,78.85
2019-02-14T05:21:36.796Z,78.56
2019-02-14T05:25:41.963Z,77.54
2019-02-14T05:29:47.083Z,76.79
2019-02-14T05:33:52.230Z,77.01
2019-02-14T05:37:57.557Z,77.51
2019-02-14T05:42:03.524Z,77.77
2019-02-14T05:46:08.687Z,78.58
2019-02-14T05:50:14.001Z,78.86
2019-02-14T05:54:19.186Z,79.12
2019-02-14T05:58:24.730Z,79.13
2019-02-14T06:02:29.922Z,78.79
2019-02-14T06:06:35.095Z,78.64
2019-02-14T06:10:40.504Z,78.85
2019-02-14T06:14:45.718Z,78.26
2019-02-14T06:18:51.844Z,78.35
2019-02-14T06:22:56.998Z,78.47
2019-02-14T06:27:02.139Z,78.70
2019-02-14T06:31:07.285Z,78.06
2019-02-14T06:35:12.449Z,78.58
2019-02-14T06:39:17.593Z,78.05
2019-02-14T06:43:22.718Z,78.74
2019-02-14T06:47:27.894Z,79.26
2019-02-14T06:51:33.033Z,77.57
2019-02-14T06:55:38.502Z,77.00
2019-02-14T06:59:43.591Z,79.56
2019-02-14T07:03:48.789Z,80.48
2019-02-14T07:07:54.207Z,80.93
2019-02-14T07:11:59.358Z,80.86
2019-02-14T07:16:04.561Z,80.86
2019-02-14T07:20:11.580Z,80.28
2019-02-14T07:24:16.737Z,80.96
2019-02-14T07:28:21.824Z,80.03
2019-02-14T07:32:26.967Z,80.43
2019-02-14T07:36:32.137Z,80.33
2019-02-14T07:40:37.262Z,81.23
2019-02-14T07:44:42.471Z,81.20
2019-02-14T07:48:47.663Z,80.64
2019-02-14T07:52:53.738Z,80.21
2019-02-14T07:56:58.909Z,79.53
2019-02-14T08:01:04.281Z,77.00
2019-02-14T08:05:09.505Z,75.55
2019-02-14T08:09:14.642Z,73.07
2019-02-14T08:13:19.920Z,71.16
2019-02-14T08:17:25.026Z,69.92
2019-02-14T08:21:31.187Z,68.58
2019-02-14T08:25:36.365Z,67.99
2019-02-14T08:29:41.529Z,64.73
2019-02-14T08:33:46.625Z,64.93
2019-02-14T08:37:51.709Z,65.44
2019-02-14T08:41:56.903Z,61.18
2019-02-14T08:46:02.002Z,61.92
2019-02-14T08:50:07.716Z,56.94
2019-02-14T08:54:13.089Z,54.86
2019-02-14T08:58:18.166Z,53.18
2019-02-14T09:02:23.327Z,57.49
2019-02-14T09:06:28.450Z,54.67
2019-02-14T09:10:33.618Z,58.41
2019-02-14T09:14:38.782Z,57.46
2019-02-14T09:18:43.853Z,58.91
2019-02-14T09:22:48.989Z,56.93
2019-02-14T09:26:54.128Z,55.71
2019-02-14T09:30:59.520Z,54.32
2019-02-14T09:35:04.882Z,55.65
2019-02-14T09:39:09.962Z,53.35
2019-02-14T09:43:15.111Z,50.18
2019-02-14T09:47:20.276Z,51.97
2019-02-14T09:51:25.362Z,51.97
2019-02-14T09:55:30.454Z,51.60
2019-02-14T09:59:35.614Z,50.81
2019-02-14T10:03:40.798Z,51.64
2019-02-14T10:07:46.293Z,49.70
2019-02-14T10:11:51.473Z,46.81
2019-02-14T10:15:56.538Z,48.88
2019-02-14T10:20:01.711Z,49.73
2019-02-14T10:24:06.897Z,49.72
2019-02-14T10:28:12.075Z,51.17
2019-02-14T10:32:17.538Z,50.79
2019-02-14T10:36:22.686Z,50.14
2019-02-14T10:40:28.076Z,51.70
2019-02-14T10:44:33.418Z,53.70
2019-02-14T10:48:38.516Z,52.81
2019-02-14T10:52:43.756Z,51.94
2019-02-14T10:56:49.168Z,51.54
2019-02-14T11:00:54.310Z,50.17
2019-02-14T11:04:59.381Z,49.56
2019-02-14T11:09:05.716Z,49.71
2019-02-14T11:13:11.445Z,50.00
2019-02-14T11:17:16.722Z,49.75
2019-02-14T11:21:21.880Z,50.10
2019-02-14T11:25:29.565Z,49.40
2019-02-14T11:29:34.740Z,48.74
2019-02-14T11:33:39.887Z,49.06
2019-02-14T11:37:45.063Z,48.66
2019-02-14T11:41:50.152Z,45.60
2019-02-14T11:45:55.278Z,40.32
2019-02-14T11:50:00.468Z,41.85
2019-02-14T11:54:05.837Z,46.05
2019-02-14T11:58:11.095Z,45.00
2019-02-14T12:02:16.227Z,45.83
2019-02-14T12:06:21.396Z,42.80
2019-02-14T12:10:26.536Z,42.32
2019-02-14T12:14:31.950Z,41.24
2019-02-14T12:18:37.051Z,39.28
2019-02-14T12:22:46.852Z,39.28
2019-02-14T12:26:49.283Z,40.42
2019-02-14T12:30:54.421Z,37.75
2019-02-14T12:34:59.635Z,37.49
2019-02-14T12:39:09.114Z,36.45
2019-02-14T12:43:13.934Z,38.70
2019-02-14T12:47:19.024Z,40.04
2019-02-14T12:51:24.139Z,41.06
2019-02-14T12:55:29.353Z,42.12
2019-02-14T12:59:34.545Z,40.32
2019-02-14T13:03:39.655Z,37.25
2019-02-14T13:07:44.855Z,38.78
2019-02-14T13:11:50.121Z,39.76
2019-02-14T13:15:55.258Z,39.87
2019-02-14T13:20:00.457Z,38.99
2019-02-14T13:24:05.575Z,38.53
2019-02-14T13:28:10.806Z,37.09
2019-02-14T13:32:15.986Z,36.63
2019-02-14T13:36:21.189Z,34.53
2019-02-14T13:40:26.624Z,32.88
2019-02-14T13:44:31.840Z,31.40
2019-02-14T13:48:37.201Z,31.15
2019-02-14T13:52:42.335Z,31.15
2019-02-14T13:56:53.970Z,29.29
2019-02-14T14:00:54.397Z,26.86
2019-02-14T14:04:59.633Z,29.86
2019-02-14T14:09:09.022Z,28.96
2019-02-14T14:13:14.225Z,32.64
2019-02-14T14:17:19.341Z,32.43
2019-02-14T14:21:24.530Z,32.29
2019-02-14T14:25:29.629Z,28.14
2019-02-14T14:29:34.815Z,27.86
2019-02-14T14:33:39.967Z,30.19
2019-02-14T14:37:45.115Z,26.15
2019-02-14T14:41:51.531Z,31.03
2019-02-14T14:46:33.702Z,36.19
2019-02-14T14:50:38.786Z,37.58
2019-02-14T14:54:44.012Z,38.07
2019-02-14T14:58:49.446Z,39.90
2019-02-14T15:02:54.713Z,39.00
2019-02-14T15:06:59.832Z,38.82
2019-02-14T15:11:05.003Z,35.10
2019-02-14T15:15:10.115Z,38.53
2019-02-14T15:19:15.311Z,38.85
2019-02-14T15:23:20.472Z,38.40
2019-02-14T15:27:25.625Z,38.64
2019-02-14T15:31:31.792Z,38.88
2019-02-14T15:35:36.900Z,36.90
2019-02-14T15:39:42.100Z,33.31
2019-02-14T15:43:47.250Z,33.24
2019-02-14T15:47:52.629Z,32.83
2019-02-14T15:51:57.719Z,33.23
2019-02-14T15:56:03.442Z,33.83
2019-02-14T16:00:10.907Z,35.27
2019-02-14T16:04:16.154Z,36.09
2019-02-14T16:08:22.270Z,36.82
2019-02-14T16:12:28.321Z,37.07
2019-02-14T16:16:33.740Z,35.10
2019-02-14T16:20:40.370Z,35.31
2019-02-14T16:24:46.033Z,34.58
2019-02-14T16:28:51.410Z,33.96
2019-02-14T16:32:56.577Z,35.89
2019-02-14T16:37:01.961Z,37.97
2019-02-14T16:41:07.719Z,39.81
2019-02-14T16:45:12.855Z,41.50
2019-02-14T16:49:19.066Z,40.98
2019-02-14T16:53:24.296Z,44.02
2019-02-14T16:57:29.377Z,46.04
2019-02-14T17:01:34.502Z,44.05
2019-02-14T17:05:39.623Z,45.68
2019-02-14T17:09:44.878Z,46.23
2019-02-14T17:13:50.103Z,49.25
2019-02-14T17:17:55.198Z,49.16
2019-02-14T17:22:00.269Z,49.44
2019-02-14T17:26:05.500Z,48.68
2019-02-14T17:30:10.662Z,48.11
2019-02-14T17:34:15.862Z,49.08
2019-02-14T17:38:21.054Z,50.60
2019-02-14T17:42:26.149Z,51.42
2019-02-14T17:46:31.344Z,50.21
2019-02-14T17:50:36.405Z,51.55
2019-02-14T17:54:41.523Z,52.81
2019-02-14T17:58:49.657Z,52.96
2019-02-14T18:02:54.821Z,53.32
2019-02-14T18:06:59.910Z,53.76
2019-02-14T18:11:05.042Z,54.50
2019-02-14T18:15:11.357Z,53.59
2019-02-14T18:19:17.772Z,52.70
2019-02-14T18:23:22.901Z,53.86
2019-02-14T18:27:28.033Z,55.47
2019-02-14T18:31:33.314Z,55.47
2019-02-14T18:35:38.469Z,54.31
2019-02-14T18:39:43.871Z,55.64
2019-02-14T18:43:49.130Z,55.60
2019-02-14T18:47:54.371Z,56.36
2019-02-14T18:51:59.792Z,56.30
2019-02-14T18:56:04.953Z,56.61
2019-02-14T19:00:12.769Z,57.06
2019-02-14T19:04:17.969Z,56.83
2019-02-14T19:08:23.203Z,58.19
2019-02-14T19:12:28.443Z,58.50
2019-02-14T19:16:33.741Z,59.64
2019-02-14T19:20:38.891Z,59.77
2019-02-14T19:24:44.022Z,58.75
2019-02-14T19:28:49.271Z,55.60
2019-02-14T19:32:54.533Z,56.58
2019-02-14T19:37:00.934Z,59.93
2019-02-14T19:41:06.206Z,60.40
2019-02-14T19:45:11.502Z,60.42
2019-02-14T19:49:16.761Z,60.97
2019-02-14T19:53:22.177Z,59.82
2019-02-14T19:57:27.319Z,59.70
2019-02-14T20:01:32.320Z,60.04
2019-02-14T20:05:37.499Z,60.13
2019-02-14T20:09:42.635Z,59.97
2019-02-14T20:13:49.806Z,59.87
2019-02-14T20:17:54.588Z,58.46
2019-02-14T20:21:59.858Z,52.18
2019-02-14T20:26:05.950Z,50.40
2019-02-14T20:30:11.095Z,48.71
2019-02-14T20:34:16.260Z,48.67
2019-02-14T20:38:21.385Z,48.40
2019-02-14T20:42:26.546Z,48.17
2019-02-14T20:46:33.634Z,48.67
2019-02-14T20:50:38.898Z,48.43
2019-02-14T20:54:44.258Z,48.65
2019-02-14T20:58:49.586Z,48.58
2019-02-14T21:02:54.714Z,48.48
2019-02-14T21:07:00.048Z,49.15
2019-02-14T21:11:05.297Z,49.78
2019-02-14T21:15:10.466Z,49.84
2019-02-14T21:19:15.636Z,50.02
2019-02-14T21:23:20.796Z,50.11
2019-02-14T21:27:25.975Z,50.92
2019-02-14T21:31:31.103Z,53.03
2019-02-14T21:35:36.271Z,53.31
2019-02-14T21:39:41.423Z,53.32
2019-02-14T21:43:46.503Z,53.42
2019-02-14T21:47:51.645Z,53.92
2019-02-14T21:51:56.726Z,52.87
2019-02-14T21:56:01.938Z,51.88
2019-02-14T22:00:09.850Z,52.54
2019-02-14T22:04:15.972Z,54.98
2019-02-14T22:08:21.128Z,53.02
2019-02-14T22:12:40.058Z,52.85
2019-02-14T22:16:33.159Z,52.34
2019-02-14T22:20:38.322Z,51.67
2019-02-14T22:24:43.408Z,52.31
2019-02-14T22:28:48.505Z,53.05
2019-02-14T22:32:53.743Z,53.47
2019-02-14T22:36:58.976Z,55.23
2019-02-14T22:41:04.131Z,54.56
2019-02-14T22:45:09.934Z,53.95
2019-02-14T22:49:15.033Z,53.08
2019-02-14T22:53:20.368Z,53.58
2019-02-14T22:57:25.601Z,53.82
2019-02-14T23:01:30.853Z,53.60
2019-02-14T23:05:35.979Z,53.27
2019-02-14T23:09:41.180Z,53.10
2019-02-14T23:13:46.492Z,52.91
2019-02-14T23:17:52.383Z,53.16
2019-02-14T23:21:57.508Z,53.44
2019-02-14T23:26:02.693Z,53.65
2019-02-14T23:30:08.212Z,53.90
2019-02-14T23:34:13.666Z,54.68
2019-02-14T23:38:18.823Z,54.95
2019-02-14T23:42:23.975Z,54.75
2019-02-14T23:46:29.074Z,54.51
2019-02-14T23:50:34.319Z,54.91
2019-02-14T23:54:39.401Z,54.38
2019-02-14T23:58:44.564Z,55.43
